sensor_id;sensor_type;location;lat;lon;timestamp;P1;durP1;ratioP1;P2;durP2;ratioP2
14486;SDS011;7329;50.866;4.366;2022-09-09T00:00:06;4.18;;;3.00;;
14486;SDS011;7329;50.866;4.366;2022-09-09T00:02:15;5.05;;;2.72;;
14486;SDS011;7329;50.866;4.366;2022-09-09T00:04:24;4.28;;;2.95;;
14486;SDS011;7329;50.866;4.366;2022-09-09T00:06:30;4.90;;;2.80;;
14486;SDS011;7329;50.866;4.366;2022-09-09T00:08:38;3.50;;;2.83;;
14486;SDS011;7329;50.866;4.366;2022-09-09T00:10:51;3.90;;;2.88;;
14486;SDS011;7329;50.866;4.366;2022-09-09T00:13:04;3.85;;;3.00;;
14486;SDS011;7329;50.866;4.366;2022-09-09T00:15:17;4.50;;;2.60;;
14486;SDS011;7329;50.866;4.366;2022-09-09T00:17:26;4.28;;;3.05;;
14486;SDS011;7329;50.866;4.366;2022-09-09T00:19:38;5.95;;;3.40;;
14486;SDS011;7329;50.866;4.366;2022-09-09T00:21:47;4.45;;;2.80;;
14486;SDS011;7329;50.866;4.366;2022-09-09T00:23:58;5.90;;;2.97;;
14486;SDS011;7329;50.866;4.366;2022-09-09T00:26:03;3.95;;;3.05;;
14486;SDS011;7329;50.866;4.366;2022-09-09T00:28:13;4.47;;;2.80;;
14486;SDS011;7329;50.866;4.366;2022-09-09T00:30:20;5.97;;;3.38;;
14486;SDS011;7329;50.866;4.366;2022-09-09T00:32:25;3.15;;;2.55;;
14486;SDS011;7329;50.866;4.366;2022-09-09T00:34:30;4.45;;;2.92;;
14486;SDS011;7329;50.866;4.366;2022-09-09T00:36:35;4.55;;;3.30;;
14486;SDS011;7329;50.866;4.366;2022-09-09T00:38:39;4.40;;;2.88;;
14486;SDS011;7329;50.866;4.366;2022-09-09T00:40:48;4.05;;;2.67;;
14486;SDS011;7329;50.866;4.366;2022-09-09T00:42:54;6.45;;;2.70;;
14486;SDS011;7329;50.866;4.366;2022-09-09T00:45:16;5.47;;;2.90;;
14486;SDS011;7329;50.866;4.366;2022-09-09T00:47:38;4.25;;;2.80;;
14486;SDS011;7329;50.866;4.366;2022-09-09T00:49:47;5.00;;;2.50;;
14486;SDS011;7329;50.866;4.366;2022-09-09T00:52:03;5.10;;;2.72;;
14486;SDS011;7329;50.866;4.366;2022-09-09T00:54:17;3.80;;;2.55;;
14486;SDS011;7329;50.866;4.366;2022-09-09T00:56:41;6.18;;;3.08;;
14486;SDS011;7329;50.866;4.366;2022-09-09T00:58:49;4.10;;;2.92;;
14486;SDS011;7329;50.866;4.366;2022-09-09T01:01:02;3.65;;;2.30;;
14486;SDS011;7329;50.866;4.366;2022-09-09T01:03:19;5.05;;;2.95;;
14486;SDS011;7329;50.866;4.366;2022-09-09T01:05:27;3.88;;;2.63;;
14486;SDS011;7329;50.866;4.366;2022-09-09T01:07:37;5.00;;;3.20;;
14486;SDS011;7329;50.866;4.366;2022-09-09T01:09:42;4.03;;;2.80;;
14486;SDS011;7329;50.866;4.366;2022-09-09T01:11:55;5.00;;;3.22;;
14486;SDS011;7329;50.866;4.366;2022-09-09T01:14:05;4.25;;;2.70;;
14486;SDS011;7329;50.866;4.366;2022-09-09T01:16:16;3.90;;;2.60;;
14486;SDS011;7329;50.866;4.366;2022-09-09T01:18:20;6.15;;;3.38;;
14486;SDS011;7329;50.866;4.366;2022-09-09T01:20:26;3.58;;;2.65;;
14486;SDS011;7329;50.866;4.366;2022-09-09T01:22:37;3.20;;;2.60;;
14486;SDS011;7329;50.866;4.366;2022-09-09T01:24:50;3.22;;;2.45;;
14486;SDS011;7329;50.866;4.366;2022-09-09T01:27:08;3.85;;;2.65;;
14486;SDS011;7329;50.866;4.366;2022-09-09T01:29:13;3.65;;;2.60;;
14486;SDS011;7329;50.866;4.366;2022-09-09T01:31:19;3.70;;;2.63;;
14486;SDS011;7329;50.866;4.366;2022-09-09T01:33:28;3.75;;;2.65;;
14486;SDS011;7329;50.866;4.366;2022-09-09T01:35:36;3.55;;;2.83;;
14486;SDS011;7329;50.866;4.366;2022-09-09T01:37:43;4.28;;;2.45;;
14486;SDS011;7329;50.866;4.366;2022-09-09T01:39:46;3.92;;;2.80;;
14486;SDS011;7329;50.866;4.366;2022-09-09T01:41:48;4.25;;;3.00;;
14486;SDS011;7329;50.866;4.366;2022-09-09T01:43:55;4.70;;;2.90;;
14486;SDS011;7329;50.866;4.366;2022-09-09T01:45:59;4.07;;;2.60;;
14486;SDS011;7329;50.866;4.366;2022-09-09T01:48:03;4.22;;;2.72;;
14486;SDS011;7329;50.866;4.366;2022-09-09T01:50:06;3.63;;;2.72;;
14486;SDS011;7329;50.866;4.366;2022-09-09T01:52:09;4.45;;;2.80;;
14486;SDS011;7329;50.866;4.366;2022-09-09T01:54:12;6.00;;;2.55;;
14486;SDS011;7329;50.866;4.366;2022-09-09T01:56:21;4.65;;;2.65;;
14486;SDS011;7329;50.866;4.366;2022-09-09T01:58:32;4.20;;;2.83;;
14486;SDS011;7329;50.866;4.366;2022-09-09T02:00:41;4.22;;;2.60;;
14486;SDS011;7329;50.866;4.366;2022-09-09T02:02:53;5.20;;;2.80;;
14486;SDS011;7329;50.866;4.366;2022-09-09T02:05:03;4.28;;;2.47;;
14486;SDS011;7329;50.866;4.366;2022-09-09T02:07:25;3.45;;;2.50;;
14486;SDS011;7329;50.866;4.366;2022-09-09T02:09:38;3.85;;;2.40;;
14486;SDS011;7329;50.866;4.366;2022-09-09T02:11:44;3.83;;;2.65;;
14486;SDS011;7329;50.866;4.366;2022-09-09T02:13:49;3.95;;;2.60;;
14486;SDS011;7329;50.866;4.366;2022-09-09T02:15:57;3.80;;;2.72;;
14486;SDS011;7329;50.866;4.366;2022-09-09T02:18:03;3.65;;;2.45;;
14486;SDS011;7329;50.866;4.366;2022-09-09T02:20:09;4.22;;;2.33;;
14486;SDS011;7329;50.866;4.366;2022-09-09T02:22:15;7.88;;;3.00;;
14486;SDS011;7329;50.866;4.366;2022-09-09T02:24:19;5.00;;;2.72;;
14486;SDS011;7329;50.866;4.366;2022-09-09T02:26:22;3.35;;;2.50;;
14486;SDS011;7329;50.866;4.366;2022-09-09T02:28:27;5.00;;;3.03;;
14486;SDS011;7329;50.866;4.366;2022-09-09T02:30:33;3.70;;;2.65;;
14486;SDS011;7329;50.866;4.366;2022-09-09T02:32:38;3.95;;;2.38;;
14486;SDS011;7329;50.866;4.366;2022-09-09T02:34:43;3.65;;;2.42;;
14486;SDS011;7329;50.866;4.366;2022-09-09T02:36:49;3.63;;;2.10;;
14486;SDS011;7329;50.866;4.366;2022-09-09T02:38:55;3.53;;;2.30;;
14486;SDS011;7329;50.866;4.366;2022-09-09T02:40:58;3.88;;;2.70;;
14486;SDS011;7329;50.866;4.366;2022-09-09T02:43:01;3.20;;;2.33;;
14486;SDS011;7329;50.866;4.366;2022-09-09T02:45:03;4.18;;;2.85;;
14486;SDS011;7329;50.866;4.366;2022-09-09T02:49:35;4.40;;;2.50;;
14486;SDS011;7329;50.866;4.366;2022-09-09T02:51:46;3.33;;;2.13;;
14486;SDS011;7329;50.866;4.366;2022-09-09T02:53:59;4.05;;;2.70;;
14486;SDS011;7329;50.866;4.366;2022-09-09T02:56:13;3.17;;;2.20;;
14486;SDS011;7329;50.866;4.366;2022-09-09T02:58:18;4.13;;;2.60;;
14486;SDS011;7329;50.866;4.366;2022-09-09T03:00:24;3.95;;;2.55;;
14486;SDS011;7329;50.866;4.366;2022-09-09T03:02:27;4.10;;;2.30;;
14486;SDS011;7329;50.866;4.366;2022-09-09T03:04:30;3.67;;;2.22;;
14486;SDS011;7329;50.866;4.366;2022-09-09T03:06:34;4.22;;;2.60;;
14486;SDS011;7329;50.866;4.366;2022-09-09T03:08:36;4.22;;;2.58;;
14486;SDS011;7329;50.866;4.366;2022-09-09T03:10:39;4.15;;;2.47;;
14486;SDS011;7329;50.866;4.366;2022-09-09T03:12:41;3.80;;;2.30;;
14486;SDS011;7329;50.866;4.366;2022-09-09T03:14:43;4.15;;;2.33;;
14486;SDS011;7329;50.866;4.366;2022-09-09T03:16:47;4.18;;;2.70;;
14486;SDS011;7329;50.866;4.366;2022-09-09T03:18:49;4.68;;;2.78;;
14486;SDS011;7329;50.866;4.366;2022-09-09T03:20:54;4.38;;;2.28;;
14486;SDS011;7329;50.866;4.366;2022-09-09T03:22:56;3.63;;;2.42;;
14486;SDS011;7329;50.866;4.366;2022-09-09T03:24:58;3.58;;;2.35;;
14486;SDS011;7329;50.866;4.366;2022-09-09T03:27:01;5.10;;;2.55;;
14486;SDS011;7329;50.866;4.366;2022-09-09T03:29:03;3.20;;;2.15;;
14486;SDS011;7329;50.866;4.366;2022-09-09T03:31:07;3.78;;;2.30;;
14486;SDS011;7329;50.866;4.366;2022-09-09T03:33:10;3.58;;;2.28;;
14486;SDS011;7329;50.866;4.366;2022-09-09T03:35:13;3.58;;;2.03;;
14486;SDS011;7329;50.866;4.366;2022-09-09T03:37:17;5.35;;;2.63;;
14486;SDS011;7329;50.866;4.366;2022-09-09T03:39:19;3.67;;;2.38;;
14486;SDS011;7329;50.866;4.366;2022-09-09T03:41:22;3.30;;;2.60;;
14486;SDS011;7329;50.866;4.366;2022-09-09T03:43:25;3.42;;;2.40;;
14486;SDS011;7329;50.866;4.366;2022-09-09T03:45:28;4.00;;;2.85;;
14486;SDS011;7329;50.866;4.366;2022-09-09T03:47:30;4.57;;;2.10;;
14486;SDS011;7329;50.866;4.366;2022-09-09T03:49:33;3.53;;;2.38;;
14486;SDS011;7329;50.866;4.366;2022-09-09T03:51:35;4.55;;;2.42;;
14486;SDS011;7329;50.866;4.366;2022-09-09T03:53:40;3.67;;;2.25;;
14486;SDS011;7329;50.866;4.366;2022-09-09T03:55:43;4.07;;;2.40;;
14486;SDS011;7329;50.866;4.366;2022-09-09T03:57:46;3.55;;;2.40;;
14486;SDS011;7329;50.866;4.366;2022-09-09T03:59:48;3.55;;;2.35;;
14486;SDS011;7329;50.866;4.366;2022-09-09T04:01:50;3.45;;;2.20;;
14486;SDS011;7329;50.866;4.366;2022-09-09T04:03:53;3.58;;;2.35;;
14486;SDS011;7329;50.866;4.366;2022-09-09T04:05:59;3.53;;;2.20;;
14486;SDS011;7329;50.866;4.366;2022-09-09T04:08:02;4.15;;;2.40;;
14486;SDS011;7329;50.866;4.366;2022-09-09T04:10:07;4.55;;;2.25;;
14486;SDS011;7329;50.866;4.366;2022-09-09T04:12:10;3.83;;;2.20;;
14486;SDS011;7329;50.866;4.366;2022-09-09T04:14:13;3.42;;;2.45;;
14486;SDS011;7329;50.866;4.366;2022-09-09T04:16:15;3.45;;;2.10;;
14486;SDS011;7329;50.866;4.366;2022-09-09T04:18:18;3.50;;;1.90;;
14486;SDS011;7329;50.866;4.366;2022-09-09T04:20:21;3.30;;;2.22;;
14486;SDS011;7329;50.866;4.366;2022-09-09T04:22:23;3.97;;;2.25;;
14486;SDS011;7329;50.866;4.366;2022-09-09T04:24:25;2.88;;;2.10;;
14486;SDS011;7329;50.866;4.366;2022-09-09T04:26:30;5.55;;;2.38;;
14486;SDS011;7329;50.866;4.366;2022-09-09T04:28:34;3.08;;;2.03;;
14486;SDS011;7329;50.866;4.366;2022-09-09T04:30:37;4.15;;;2.38;;
14486;SDS011;7329;50.866;4.366;2022-09-09T04:32:40;3.90;;;2.13;;
14486;SDS011;7329;50.866;4.366;2022-09-09T04:34:42;4.47;;;2.13;;
14486;SDS011;7329;50.866;4.366;2022-09-09T04:36:45;4.07;;;2.55;;
14486;SDS011;7329;50.866;4.366;2022-09-09T04:38:47;4.25;;;2.50;;
14486;SDS011;7329;50.866;4.366;2022-09-09T04:40:50;2.97;;;2.10;;
14486;SDS011;7329;50.866;4.366;2022-09-09T04:42:57;2.78;;;2.00;;
14486;SDS011;7329;50.866;4.366;2022-09-09T04:45:01;3.20;;;2.05;;
14486;SDS011;7329;50.866;4.366;2022-09-09T04:47:03;2.85;;;2.03;;
14486;SDS011;7329;50.866;4.366;2022-09-09T04:49:05;3.85;;;2.53;;
14486;SDS011;7329;50.866;4.366;2022-09-09T04:51:08;3.90;;;2.08;;
14486;SDS011;7329;50.866;4.366;2022-09-09T04:53:13;3.90;;;1.83;;
14486;SDS011;7329;50.866;4.366;2022-09-09T04:55:15;4.50;;;2.17;;
14486;SDS011;7329;50.866;4.366;2022-09-09T04:57:18;4.25;;;2.30;;
14486;SDS011;7329;50.866;4.366;2022-09-09T04:59:21;4.47;;;2.25;;
14486;SDS011;7329;50.866;4.366;2022-09-09T05:01:24;2.67;;;1.67;;
14486;SDS011;7329;50.866;4.366;2022-09-09T05:03:27;4.07;;;2.45;;
14486;SDS011;7329;50.866;4.366;2022-09-09T05:05:30;6.07;;;2.08;;
14486;SDS011;7329;50.866;4.366;2022-09-09T05:07:32;3.78;;;2.17;;
14486;SDS011;7329;50.866;4.366;2022-09-09T05:09:34;3.63;;;2.05;;
14486;SDS011;7329;50.866;4.366;2022-09-09T05:11:37;4.85;;;2.00;;
14486;SDS011;7329;50.866;4.366;2022-09-09T05:13:39;2.63;;;2.00;;
14486;SDS011;7329;50.866;4.366;2022-09-09T05:15:43;3.03;;;1.90;;
14486;SDS011;7329;50.866;4.366;2022-09-09T05:17:56;3.80;;;2.30;;
14486;SDS011;7329;50.866;4.366;2022-09-09T05:19:59;3.40;;;2.17;;
14486;SDS011;7329;50.866;4.366;2022-09-09T05:22:03;5.10;;;2.42;;
14486;SDS011;7329;50.866;4.366;2022-09-09T05:24:05;5.20;;;2.30;;
14486;SDS011;7329;50.866;4.366;2022-09-09T05:26:09;3.58;;;2.00;;
14486;SDS011;7329;50.866;4.366;2022-09-09T05:28:14;3.58;;;1.70;;
14486;SDS011;7329;50.866;4.366;2022-09-09T05:30:16;4.50;;;2.22;;
14486;SDS011;7329;50.866;4.366;2022-09-09T05:32:21;3.97;;;2.10;;
14486;SDS011;7329;50.866;4.366;2022-09-09T05:34:23;4.63;;;2.20;;
14486;SDS011;7329;50.866;4.366;2022-09-09T05:36:25;4.13;;;2.10;;
14486;SDS011;7329;50.866;4.366;2022-09-09T05:38:27;4.43;;;1.80;;
14486;SDS011;7329;50.866;4.366;2022-09-09T05:40:31;3.92;;;2.10;;
14486;SDS011;7329;50.866;4.366;2022-09-09T05:42:33;3.75;;;2.10;;
14486;SDS011;7329;50.866;4.366;2022-09-09T05:44:35;3.72;;;2.03;;
14486;SDS011;7329;50.866;4.366;2022-09-09T05:46:38;2.92;;;1.60;;
14486;SDS011;7329;50.866;4.366;2022-09-09T05:48:42;4.32;;;2.10;;
14486;SDS011;7329;50.866;4.366;2022-09-09T05:50:54;4.85;;;2.33;;
14486;SDS011;7329;50.866;4.366;2022-09-09T05:52:56;3.97;;;2.10;;
14486;SDS011;7329;50.866;4.366;2022-09-09T05:54:59;3.58;;;1.90;;
14486;SDS011;7329;50.866;4.366;2022-09-09T05:57:02;3.67;;;2.15;;
14486;SDS011;7329;50.866;4.366;2022-09-09T05:59:04;3.17;;;2.05;;
14486;SDS011;7329;50.866;4.366;2022-09-09T06:01:07;5.55;;;2.10;;
14486;SDS011;7329;50.866;4.366;2022-09-09T06:03:11;3.17;;;2.00;;
14486;SDS011;7329;50.866;4.366;2022-09-09T06:05:15;3.40;;;2.00;;
14486;SDS011;7329;50.866;4.366;2022-09-09T06:07:18;4.95;;;2.20;;
14486;SDS011;7329;50.866;4.366;2022-09-09T06:09:20;4.90;;;1.90;;
14486;SDS011;7329;50.866;4.366;2022-09-09T06:11:24;4.40;;;2.05;;
14486;SDS011;7329;50.866;4.366;2022-09-09T06:13:27;3.05;;;1.77;;
14486;SDS011;7329;50.866;4.366;2022-09-09T06:15:30;3.58;;;2.28;;
14486;SDS011;7329;50.866;4.366;2022-09-09T06:17:32;4.28;;;2.30;;
14486;SDS011;7329;50.866;4.366;2022-09-09T06:19:34;4.50;;;2.45;;
14486;SDS011;7329;50.866;4.366;2022-09-09T06:21:38;5.45;;;2.28;;
14486;SDS011;7329;50.866;4.366;2022-09-09T06:23:41;4.07;;;2.10;;
14486;SDS011;7329;50.866;4.366;2022-09-09T06:25:44;4.68;;;2.20;;
14486;SDS011;7329;50.866;4.366;2022-09-09T06:27:48;4.63;;;2.38;;
14486;SDS011;7329;50.866;4.366;2022-09-09T06:29:51;2.97;;;1.80;;
14486;SDS011;7329;50.866;4.366;2022-09-09T06:31:53;3.38;;;1.77;;
14486;SDS011;7329;50.866;4.366;2022-09-09T06:33:56;4.10;;;2.05;;
14486;SDS011;7329;50.866;4.366;2022-09-09T06:36:00;3.70;;;2.30;;
14486;SDS011;7329;50.866;4.366;2022-09-09T06:38:05;4.43;;;2.00;;
14486;SDS011;7329;50.866;4.366;2022-09-09T06:40:09;4.95;;;2.28;;
14486;SDS011;7329;50.866;4.366;2022-09-09T06:42:12;4.35;;;2.08;;
14486;SDS011;7329;50.866;4.366;2022-09-09T06:44:16;4.60;;;2.20;;
14486;SDS011;7329;50.866;4.366;2022-09-09T06:46:18;4.53;;;1.83;;
14486;SDS011;7329;50.866;4.366;2022-09-09T06:48:22;3.67;;;1.88;;
14486;SDS011;7329;50.866;4.366;2022-09-09T06:50:26;5.22;;;1.98;;
14486;SDS011;7329;50.866;4.366;2022-09-09T06:52:28;3.65;;;2.10;;
14486;SDS011;7329;50.866;4.366;2022-09-09T06:54:32;4.15;;;2.05;;
14486;SDS011;7329;50.866;4.366;2022-09-09T06:56:38;4.18;;;2.10;;
14486;SDS011;7329;50.866;4.366;2022-09-09T06:58:42;3.63;;;1.92;;
14486;SDS011;7329;50.866;4.366;2022-09-09T07:00:45;4.88;;;1.90;;
14486;SDS011;7329;50.866;4.366;2022-09-09T07:02:48;5.05;;;2.35;;
14486;SDS011;7329;50.866;4.366;2022-09-09T07:04:52;7.28;;;2.03;;
14486;SDS011;7329;50.866;4.366;2022-09-09T07:06:54;8.95;;;2.40;;
14486;SDS011;7329;50.866;4.366;2022-09-09T07:08:57;9.25;;;2.35;;
14486;SDS011;7329;50.866;4.366;2022-09-09T07:11:03;7.05;;;2.20;;
14486;SDS011;7329;50.866;4.366;2022-09-09T07:13:06;7.45;;;2.08;;
14486;SDS011;7329;50.866;4.366;2022-09-09T07:15:10;8.88;;;2.15;;
14486;SDS011;7329;50.866;4.366;2022-09-09T07:17:13;6.63;;;2.25;;
14486;SDS011;7329;50.866;4.366;2022-09-09T07:19:15;5.25;;;2.03;;
14486;SDS011;7329;50.866;4.366;2022-09-09T07:21:18;8.60;;;2.22;;
14486;SDS011;7329;50.866;4.366;2022-09-09T07:23:21;8.02;;;1.95;;
14486;SDS011;7329;50.866;4.366;2022-09-09T07:25:24;7.90;;;2.00;;
14486;SDS011;7329;50.866;4.366;2022-09-09T07:27:28;6.30;;;1.90;;
14486;SDS011;7329;50.866;4.366;2022-09-09T07:29:30;9.80;;;2.08;;
14486;SDS011;7329;50.866;4.366;2022-09-09T07:31:33;6.38;;;2.03;;
14486;SDS011;7329;50.866;4.366;2022-09-09T07:33:37;9.45;;;2.30;;
14486;SDS011;7329;50.866;4.366;2022-09-09T07:35:39;13.52;;;2.63;;
14486;SDS011;7329;50.866;4.366;2022-09-09T07:37:43;6.50;;;2.30;;
14486;SDS011;7329;50.866;4.366;2022-09-09T07:39:45;8.13;;;2.40;;
14486;SDS011;7329;50.866;4.366;2022-09-09T07:41:48;4.78;;;1.92;;
14486;SDS011;7329;50.866;4.366;2022-09-09T07:43:52;8.88;;;2.50;;
14486;SDS011;7329;50.866;4.366;2022-09-09T07:45:57;8.95;;;2.80;;
14486;SDS011;7329;50.866;4.366;2022-09-09T07:48:00;7.00;;;2.30;;
14486;SDS011;7329;50.866;4.366;2022-09-09T07:50:02;6.93;;;2.05;;
14486;SDS011;7329;50.866;4.366;2022-09-09T07:52:05;7.65;;;2.30;;
14486;SDS011;7329;50.866;4.366;2022-09-09T07:54:08;6.95;;;2.13;;
14486;SDS011;7329;50.866;4.366;2022-09-09T07:56:12;8.82;;;2.20;;
14486;SDS011;7329;50.866;4.366;2022-09-09T07:58:17;7.45;;;2.30;;
14486;SDS011;7329;50.866;4.366;2022-09-09T08:00:20;4.22;;;1.60;;
14486;SDS011;7329;50.866;4.366;2022-09-09T08:02:24;5.53;;;1.70;;
14486;SDS011;7329;50.866;4.366;2022-09-09T08:04:29;8.70;;;2.22;;
14486;SDS011;7329;50.866;4.366;2022-09-09T08:06:33;4.70;;;1.73;;
14486;SDS011;7329;50.866;4.366;2022-09-09T08:08:37;9.68;;;2.28;;
14486;SDS011;7329;50.866;4.366;2022-09-09T08:10:42;9.45;;;2.40;;
14486;SDS011;7329;50.866;4.366;2022-09-09T08:12:44;12.15;;;2.53;;
14486;SDS011;7329;50.866;4.366;2022-09-09T08:14:46;6.13;;;2.05;;
14486;SDS011;7329;50.866;4.366;2022-09-09T08:16:50;8.60;;;2.50;;
14486;SDS011;7329;50.866;4.366;2022-09-09T08:18:54;6.60;;;2.10;;
14486;SDS011;7329;50.866;4.366;2022-09-09T08:20:56;7.80;;;2.47;;
14486;SDS011;7329;50.866;4.366;2022-09-09T08:22:58;7.20;;;2.08;;
14486;SDS011;7329;50.866;4.366;2022-09-09T08:25:00;9.57;;;2.70;;
14486;SDS011;7329;50.866;4.366;2022-09-09T08:27:06;6.85;;;2.30;;
14486;SDS011;7329;50.866;4.366;2022-09-09T08:29:10;7.45;;;2.30;;
14486;SDS011;7329;50.866;4.366;2022-09-09T08:31:17;7.93;;;2.45;;
14486;SDS011;7329;50.866;4.366;2022-09-09T08:33:22;9.52;;;2.50;;
14486;SDS011;7329;50.866;4.366;2022-09-09T08:35:25;11.95;;;2.60;;
14486;SDS011;7329;50.866;4.366;2022-09-09T08:37:28;6.65;;;2.28;;
14486;SDS011;7329;50.866;4.366;2022-09-09T08:39:30;6.97;;;2.40;;
14486;SDS011;7329;50.866;4.366;2022-09-09T08:41:41;5.38;;;1.83;;
14486;SDS011;7329;50.866;4.366;2022-09-09T08:43:58;7.07;;;2.15;;
14486;SDS011;7329;50.866;4.366;2022-09-09T08:46:08;7.65;;;1.98;;
14486;SDS011;7329;50.866;4.366;2022-09-09T08:48:16;5.32;;;2.00;;
14486;SDS011;7329;50.866;4.366;2022-09-09T08:50:26;5.88;;;1.80;;
14486;SDS011;7329;50.866;4.366;2022-09-09T08:52:36;7.63;;;2.25;;
14486;SDS011;7329;50.866;4.366;2022-09-09T08:54:41;15.10;;;3.70;;
14486;SDS011;7329;50.866;4.366;2022-09-09T08:56:43;28.73;;;8.15;;
14486;SDS011;7329;50.866;4.366;2022-09-09T08:58:47;12.57;;;3.47;;
14486;SDS011;7329;50.866;4.366;2022-09-09T09:00:54;9.45;;;2.58;;
14486;SDS011;7329;50.866;4.366;2022-09-09T09:03:09;9.57;;;2.67;;
14486;SDS011;7329;50.866;4.366;2022-09-09T09:05:23;11.82;;;3.35;;
14486;SDS011;7329;50.866;4.366;2022-09-09T09:07:36;10.23;;;3.20;;
14486;SDS011;7329;50.866;4.366;2022-09-09T09:09:51;10.25;;;2.58;;
14486;SDS011;7329;50.866;4.366;2022-09-09T09:12:06;16.67;;;3.40;;
14486;SDS011;7329;50.866;4.366;2022-09-09T09:14:17;7.88;;;2.80;;
14486;SDS011;7329;50.866;4.366;2022-09-09T09:16:25;8.20;;;2.60;;
14486;SDS011;7329;50.866;4.366;2022-09-09T09:18:33;36.17;;;7.13;;
14486;SDS011;7329;50.866;4.366;2022-09-09T09:20:42;12.60;;;3.78;;
14486;SDS011;7329;50.866;4.366;2022-09-09T09:22:52;21.42;;;4.50;;
14486;SDS011;7329;50.866;4.366;2022-09-09T09:25:00;20.88;;;4.90;;
14486;SDS011;7329;50.866;4.366;2022-09-09T09:27:12;21.52;;;5.35;;
14486;SDS011;7329;50.866;4.366;2022-09-09T09:29:17;16.65;;;3.90;;
14486;SDS011;7329;50.866;4.366;2022-09-09T09:31:20;14.88;;;3.78;;
14486;SDS011;7329;50.866;4.366;2022-09-09T09:33:24;12.73;;;4.18;;
14486;SDS011;7329;50.866;4.366;2022-09-09T09:35:30;14.23;;;4.05;;
14486;SDS011;7329;50.866;4.366;2022-09-09T09:37:34;13.88;;;3.90;;
14486;SDS011;7329;50.866;4.366;2022-09-09T09:39:36;10.82;;;4.20;;
14486;SDS011;7329;50.866;4.366;2022-09-09T09:41:40;11.00;;;3.50;;
14486;SDS011;7329;50.866;4.366;2022-09-09T09:43:52;12.88;;;3.58;;
14486;SDS011;7329;50.866;4.366;2022-09-09T09:45:55;13.55;;;4.15;;
14486;SDS011;7329;50.866;4.366;2022-09-09T09:47:59;11.30;;;4.00;;
14486;SDS011;7329;50.866;4.366;2022-09-09T09:50:03;13.18;;;4.47;;
14486;SDS011;7329;50.866;4.366;2022-09-09T09:52:06;14.10;;;4.05;;
14486;SDS011;7329;50.866;4.366;2022-09-09T09:54:26;11.98;;;3.92;;
14486;SDS011;7329;50.866;4.366;2022-09-09T09:56:30;13.00;;;4.38;;
14486;SDS011;7329;50.866;4.366;2022-09-09T09:58:33;13.77;;;4.60;;
14486;SDS011;7329;50.866;4.366;2022-09-09T10:00:46;14.30;;;4.57;;
14486;SDS011;7329;50.866;4.366;2022-09-09T10:02:50;14.82;;;4.45;;
14486;SDS011;7329;50.866;4.366;2022-09-09T10:05:03;16.25;;;4.80;;
14486;SDS011;7329;50.866;4.366;2022-09-09T10:07:11;10.88;;;4.28;;
14486;SDS011;7329;50.866;4.366;2022-09-09T10:09:20;12.65;;;4.28;;
14486;SDS011;7329;50.866;4.366;2022-09-09T10:11:29;14.80;;;4.65;;
14486;SDS011;7329;50.866;4.366;2022-09-09T10:13:42;12.30;;;4.30;;
14486;SDS011;7329;50.866;4.366;2022-09-09T10:15:58;10.48;;;4.00;;
14486;SDS011;7329;50.866;4.366;2022-09-09T10:18:13;10.68;;;3.97;;
14486;SDS011;7329;50.866;4.366;2022-09-09T10:20:29;12.43;;;3.75;;
14486;SDS011;7329;50.866;4.366;2022-09-09T10:22:38;12.50;;;3.92;;
14486;SDS011;7329;50.866;4.366;2022-09-09T10:27:32;11.55;;;3.60;;
14486;SDS011;7329;50.866;4.366;2022-09-09T10:29:47;11.35;;;3.95;;
14486;SDS011;7329;50.866;4.366;2022-09-09T10:32:06;9.32;;;4.15;;
14486;SDS011;7329;50.866;4.366;2022-09-09T10:34:32;11.73;;;4.45;;
14486;SDS011;7329;50.866;4.366;2022-09-09T10:36:47;10.10;;;4.15;;
14486;SDS011;7329;50.866;4.366;2022-09-09T10:38:52;12.15;;;4.15;;
14486;SDS011;7329;50.866;4.366;2022-09-09T10:43:26;10.57;;;3.92;;
14486;SDS011;7329;50.866;4.366;2022-09-09T10:45:44;11.55;;;3.80;;
14486;SDS011;7329;50.866;4.366;2022-09-09T10:48:08;11.98;;;4.40;;
14486;SDS011;7329;50.866;4.366;2022-09-09T10:50:32;13.98;;;4.05;;
14486;SDS011;7329;50.866;4.366;2022-09-09T10:52:53;13.23;;;3.95;;
14486;SDS011;7329;50.866;4.366;2022-09-09T10:55:07;8.05;;;4.10;;
14486;SDS011;7329;50.866;4.366;2022-09-09T10:57:17;9.02;;;3.55;;
14486;SDS011;7329;50.866;4.366;2022-09-09T10:59:31;8.50;;;4.00;;
14486;SDS011;7329;50.866;4.366;2022-09-09T11:01:40;10.77;;;4.10;;
14486;SDS011;7329;50.866;4.366;2022-09-09T11:03:48;11.73;;;4.32;;
14486;SDS011;7329;50.866;4.366;2022-09-09T11:05:56;13.52;;;4.38;;
14486;SDS011;7329;50.866;4.366;2022-09-09T11:08:04;10.27;;;4.32;;
14486;SDS011;7329;50.866;4.366;2022-09-09T11:10:16;11.38;;;3.85;;
14486;SDS011;7329;50.866;4.366;2022-09-09T11:12:22;12.90;;;4.72;;
14486;SDS011;7329;50.866;4.366;2022-09-09T11:14:28;12.48;;;4.60;;
14486;SDS011;7329;50.866;4.366;2022-09-09T11:16:39;13.70;;;4.40;;
14486;SDS011;7329;50.866;4.366;2022-09-09T11:18:46;8.10;;;4.03;;
14486;SDS011;7329;50.866;4.366;2022-09-09T11:20:51;12.43;;;4.05;;
14486;SDS011;7329;50.866;4.366;2022-09-09T11:22:59;7.88;;;3.28;;
14486;SDS011;7329;50.866;4.366;2022-09-09T11:25:06;8.45;;;3.08;;
14486;SDS011;7329;50.866;4.366;2022-09-09T11:27:16;8.50;;;3.45;;
14486;SDS011;7329;50.866;4.366;2022-09-09T11:29:43;8.18;;;3.40;;
14486;SDS011;7329;50.866;4.366;2022-09-09T11:32:04;7.10;;;2.95;;
14486;SDS011;7329;50.866;4.366;2022-09-09T11:34:24;7.18;;;3.05;;
14486;SDS011;7329;50.866;4.366;2022-09-09T11:36:53;7.00;;;2.80;;
14486;SDS011;7329;50.866;4.366;2022-09-09T11:39:07;7.82;;;3.00;;
14486;SDS011;7329;50.866;4.366;2022-09-09T11:41:33;5.85;;;2.70;;
14486;SDS011;7329;50.866;4.366;2022-09-09T11:43:39;8.10;;;2.50;;
14486;SDS011;7329;50.866;4.366;2022-09-09T11:45:49;9.55;;;3.25;;
14486;SDS011;7329;50.866;4.366;2022-09-09T11:47:54;6.57;;;2.45;;
14486;SDS011;7329;50.866;4.366;2022-09-09T11:50:07;5.28;;;2.65;;
14486;SDS011;7329;50.866;4.366;2022-09-09T11:52:12;10.75;;;2.97;;
14486;SDS011;7329;50.866;4.366;2022-09-09T11:54:26;8.80;;;2.88;;
14486;SDS011;7329;50.866;4.366;2022-09-09T11:56:31;9.45;;;2.92;;
14486;SDS011;7329;50.866;4.366;2022-09-09T11:58:39;7.80;;;3.35;;
14486;SDS011;7329;50.866;4.366;2022-09-09T12:00:45;6.65;;;2.60;;
14486;SDS011;7329;50.866;4.366;2022-09-09T12:02:50;5.28;;;2.53;;
14486;SDS011;7329;50.866;4.366;2022-09-09T12:04:55;6.70;;;2.55;;
14486;SDS011;7329;50.866;4.366;2022-09-09T12:07:03;9.25;;;3.28;;
14486;SDS011;7329;50.866;4.366;2022-09-09T12:09:22;7.13;;;2.88;;
14486;SDS011;7329;50.866;4.366;2022-09-09T12:11:35;5.20;;;2.55;;
14486;SDS011;7329;50.866;4.366;2022-09-09T12:13:37;8.98;;;2.90;;
14486;SDS011;7329;50.866;4.366;2022-09-09T12:15:47;5.78;;;2.60;;
14486;SDS011;7329;50.866;4.366;2022-09-09T12:17:51;6.07;;;2.42;;
14486;SDS011;7329;50.866;4.366;2022-09-09T12:20:02;7.10;;;2.67;;
14486;SDS011;7329;50.866;4.366;2022-09-09T12:22:11;8.80;;;2.75;;
14486;SDS011;7329;50.866;4.366;2022-09-09T12:24:26;7.95;;;3.08;;
14486;SDS011;7329;50.866;4.366;2022-09-09T12:26:35;6.60;;;2.80;;
14486;SDS011;7329;50.866;4.366;2022-09-09T12:28:45;8.68;;;3.05;;
14486;SDS011;7329;50.866;4.366;2022-09-09T12:30:55;5.93;;;2.78;;
14486;SDS011;7329;50.866;4.366;2022-09-09T12:33:08;6.13;;;2.83;;
14486;SDS011;7329;50.866;4.366;2022-09-09T12:35:14;8.85;;;3.20;;
14486;SDS011;7329;50.866;4.366;2022-09-09T12:37:26;7.32;;;3.33;;
14486;SDS011;7329;50.866;4.366;2022-09-09T12:39:33;6.05;;;3.10;;
14486;SDS011;7329;50.866;4.366;2022-09-09T12:41:39;8.23;;;3.60;;
14486;SDS011;7329;50.866;4.366;2022-09-09T12:43:41;4.57;;;2.80;;
14486;SDS011;7329;50.866;4.366;2022-09-09T12:45:44;5.60;;;2.92;;
14486;SDS011;7329;50.866;4.366;2022-09-09T12:47:48;7.13;;;3.45;;
14486;SDS011;7329;50.866;4.366;2022-09-09T12:49:53;7.30;;;3.10;;
14486;SDS011;7329;50.866;4.366;2022-09-09T12:51:56;5.90;;;3.22;;
14486;SDS011;7329;50.866;4.366;2022-09-09T12:54:00;7.63;;;3.35;;
14486;SDS011;7329;50.866;4.366;2022-09-09T12:56:04;6.40;;;3.20;;
14486;SDS011;7329;50.866;4.366;2022-09-09T12:58:11;7.22;;;3.38;;
14486;SDS011;7329;50.866;4.366;2022-09-09T13:00:19;7.43;;;3.33;;